EmailTwitter


Surface observations / France / LFBO (07630)

Regions: Quebec | Canada | USA | Europe | France | UK | Elsewhere
Station
Display
Info & Location for LFBO (07630) | Help decoding METAR

Weather Conditions observed on 2018/06/19 at 23:30 UTC at TOULOUSE/BLAGNAC, FR (LFBO)

Temperature: 19.0 Celsius.

Dewpoint: 16.0 Celsius.

Relative Humidity: 83%

Humidex: 24.

Winds: South at 7 km/h or 4 knots.

Mean Sea level Pressure: 102.00 kilopascals.

Coded METAR:

LFBO 192330Z AUTO 18004KT CAVOK 19/16 Q1020 NOSIG=